sensor_id;sensor_type;location;lat;lon;timestamp;P1;P2;P0
46302;PMS7003;32029;51.358;5.628;2023-06-14T00:00:54;8.80;6.40;5.40
46302;PMS7003;32029;51.358;5.628;2023-06-14T00:03:25;6.57;5.57;4.71
46302;PMS7003;32029;51.358;5.628;2023-06-14T00:05:52;5.67;5.67;4.67
46302;PMS7003;32029;51.358;5.628;2023-06-14T00:08:18;9.33;7.00;5.33
46302;PMS7003;32029;51.358;5.628;2023-06-14T00:10:47;6.00;6.00;5.33
46302;PMS7003;32029;51.358;5.628;2023-06-14T00:13:14;6.67;6.67;5.67
46302;PMS7003;32029;51.358;5.628;2023-06-14T00:15:40;7.67;6.67;5.67
46302;PMS7003;32029;51.358;5.628;2023-06-14T00:18:11;7.43;6.43;5.86
46302;PMS7003;32029;51.358;5.628;2023-06-14T00:20:39;9.20;7.60;6.40
46302;PMS7003;32029;51.358;5.628;2023-06-14T00:23:08;9.33;7.33;6.67
46302;PMS7003;32029;51.358;5.628;2023-06-14T00:25:34;6.33;6.33;6.00
46302;PMS7003;32029;51.358;5.628;2023-06-14T00:28:02;6.00;6.00;5.00
46302;PMS7003;32029;51.358;5.628;2023-06-14T00:30:29;5.33;5.33;4.00
46302;PMS7003;32029;51.358;5.628;2023-06-14T00:32:58;7.80;5.40;4.00
46302;PMS7003;32029;51.358;5.628;2023-06-14T00:35:24;3.00;2.33;2.00
46302;PMS7003;32029;51.358;5.628;2023-06-14T00:37:51;7.33;5.67;4.67
46302;PMS7003;32029;51.358;5.628;2023-06-14T00:40:21;7.20;7.20;6.00
46302;PMS7003;32029;51.358;5.628;2023-06-14T00:42:48;8.00;8.00;6.00
46302;PMS7003;32029;51.358;5.628;2023-06-14T00:45:15;11.00;8.00;6.00
46302;PMS7003;32029;51.358;5.628;2023-06-14T00:47:42;7.00;6.00;4.67
46302;PMS7003;32029;51.358;5.628;2023-06-14T00:50:10;6.67;6.33;5.33
46302;PMS7003;32029;51.358;5.628;2023-06-14T00:52:40;9.40;8.20;6.00
46302;PMS7003;32029;51.358;5.628;2023-06-14T00:55:08;8.00;8.00;6.00
46302;PMS7003;32029;51.358;5.628;2023-06-14T00:57:35;8.00;7.00;6.00
46302;PMS7003;32029;51.358;5.628;2023-06-14T01:00:04;7.67;7.67;6.00
46302;PMS7003;32029;51.358;5.628;2023-06-14T01:02:37;9.40;9.40;6.00
46302;PMS7003;32029;51.358;5.628;2023-06-14T01:05:04;8.33;7.33;6.00
46302;PMS7003;32029;51.358;5.628;2023-06-14T01:13:30;11.33;8.33;6.00
46302;PMS7003;32029;51.358;5.628;2023-06-14T01:16:01;8.33;7.33;6.00
46302;PMS7003;32029;51.358;5.628;2023-06-14T01:18:30;11.40;7.00;6.80
46302;PMS7003;32029;51.358;5.628;2023-06-14T01:20:58;8.00;7.00;6.00
46302;PMS7003;32029;51.358;5.628;2023-06-14T01:23:26;6.40;6.40;6.00
46302;PMS7003;32029;51.358;5.628;2023-06-14T01:25:59;6.00;6.00;5.00
46302;PMS7003;32029;51.358;5.628;2023-06-14T01:28:27;8.40;7.60;7.00
46302;PMS7003;32029;51.358;5.628;2023-06-14T01:31:00;7.80;7.40;6.20
46302;PMS7003;32029;51.358;5.628;2023-06-14T01:33:31;7.00;7.00;5.00
46302;PMS7003;32029;51.358;5.628;2023-06-14T01:36:00;8.33;8.33;7.00
46302;PMS7003;32029;51.358;5.628;2023-06-14T01:38:29;9.33;4.00;3.67
46302;PMS7003;32029;51.358;5.628;2023-06-14T01:40:58;6.67;6.67;5.00
46302;PMS7003;32029;51.358;5.628;2023-06-14T01:43:27;6.67;6.33;5.33
46302;PMS7003;32029;51.358;5.628;2023-06-14T01:45:57;11.33;5.67;5.67
46302;PMS7003;32029;51.358;5.628;2023-06-14T01:48:25;6.67;6.67;5.67
46302;PMS7003;32029;51.358;5.628;2023-06-14T01:50:52;4.00;4.00;4.00
46302;PMS7003;32029;51.358;5.628;2023-06-14T01:53:19;4.00;4.00;3.00
46302;PMS7003;32029;51.358;5.628;2023-06-14T01:55:46;6.67;5.67;4.67
46302;PMS7003;32029;51.358;5.628;2023-06-14T01:58:14;7.67;6.00;5.67
46302;PMS7003;32029;51.358;5.628;2023-06-14T02:00:46;4.00;4.00;3.00
46302;PMS7003;32029;51.358;5.628;2023-06-14T02:03:13;5.33;4.33;3.33
46302;PMS7003;32029;51.358;5.628;2023-06-14T02:05:41;8.33;7.00;5.00
46302;PMS7003;32029;51.358;5.628;2023-06-14T02:08:08;4.00;4.00;3.67
46302;PMS7003;32029;51.358;5.628;2023-06-14T02:10:35;6.00;5.00;4.67
46302;PMS7003;32029;51.358;5.628;2023-06-14T02:13:02;5.67;5.00;4.00
46302;PMS7003;32029;51.358;5.628;2023-06-14T02:15:29;8.33;5.67;4.33
46302;PMS7003;32029;51.358;5.628;2023-06-14T02:18:00;6.67;6.67;6.00
46302;PMS7003;32029;51.358;5.628;2023-06-14T02:20:28;7.33;5.00;4.00
46302;PMS7003;32029;51.358;5.628;2023-06-14T02:22:55;7.00;6.00;5.00
46302;PMS7003;32029;51.358;5.628;2023-06-14T02:25:22;6.33;6.00;5.00
46302;PMS7003;32029;51.358;5.628;2023-06-14T02:27:50;9.60;7.00;6.00
46302;PMS7003;32029;51.358;5.628;2023-06-14T02:30:17;7.00;5.67;5.00
46302;PMS7003;32029;51.358;5.628;2023-06-14T02:32:43;6.00;6.00;5.00
46302;PMS7003;32029;51.358;5.628;2023-06-14T02:35:10;6.00;6.00;5.00
46302;PMS7003;32029;51.358;5.628;2023-06-14T02:37:37;5.00;5.00;5.00
46302;PMS7003;32029;51.358;5.628;2023-06-14T02:40:04;5.00;4.00;3.67
46302;PMS7003;32029;51.358;5.628;2023-06-14T02:42:32;8.67;6.33;5.00
46302;PMS7003;32029;51.358;5.628;2023-06-14T02:44:59;7.67;4.00;4.00
46302;PMS7003;32029;51.358;5.628;2023-06-14T02:47:26;5.00;5.00;4.33
46302;PMS7003;32029;51.358;5.628;2023-06-14T02:49:53;6.67;5.67;4.67
46302;PMS7003;32029;51.358;5.628;2023-06-14T02:52:20;7.33;4.00;3.00
46302;PMS7003;32029;51.358;5.628;2023-06-14T02:54:46;5.00;5.00;4.00
46302;PMS7003;32029;51.358;5.628;2023-06-14T02:57:15;9.00;5.67;4.00
46302;PMS7003;32029;51.358;5.628;2023-06-14T02:59:41;3.00;2.00;1.00
46302;PMS7003;32029;51.358;5.628;2023-06-14T03:02:09;5.00;5.00;4.40
46302;PMS7003;32029;51.358;5.628;2023-06-14T03:04:36;5.33;4.33;3.67
46302;PMS7003;32029;51.358;5.628;2023-06-14T03:07:05;5.33;4.33;4.00
46302;PMS7003;32029;51.358;5.628;2023-06-14T03:09:35;6.00;5.00;4.00
46302;PMS7003;32029;51.358;5.628;2023-06-14T03:12:05;7.00;5.00;4.00
46302;PMS7003;32029;51.358;5.628;2023-06-14T03:14:33;5.00;4.00;4.00
46302;PMS7003;32029;51.358;5.628;2023-06-14T03:17:01;3.00;3.00;3.00
46302;PMS7003;32029;51.358;5.628;2023-06-14T03:19:28;5.33;5.00;4.00
46302;PMS7003;32029;51.358;5.628;2023-06-14T03:21:55;3.67;3.67;3.33
46302;PMS7003;32029;51.358;5.628;2023-06-14T03:24:26;4.33;4.00;3.33
46302;PMS7003;32029;51.358;5.628;2023-06-14T03:26:54;5.00;5.00;4.67
46302;PMS7003;32029;51.358;5.628;2023-06-14T03:29:21;6.33;6.33;5.67
46302;PMS7003;32029;51.358;5.628;2023-06-14T03:31:58;5.67;4.00;3.33
46302;PMS7003;32029;51.358;5.628;2023-06-14T03:34:26;5.00;5.00;4.00
46302;PMS7003;32029;51.358;5.628;2023-06-14T03:36:53;7.00;6.00;5.00
46302;PMS7003;32029;51.358;5.628;2023-06-14T03:39:20;4.67;4.67;3.67
46302;PMS7003;32029;51.358;5.628;2023-06-14T03:41:47;6.00;5.00;4.33
46302;PMS7003;32029;51.358;5.628;2023-06-14T03:44:17;5.00;4.33;4.00
46302;PMS7003;32029;51.358;5.628;2023-06-14T03:46:45;4.33;4.33;4.00
46302;PMS7003;32029;51.358;5.628;2023-06-14T03:49:12;6.00;6.00;5.00
46302;PMS7003;32029;51.358;5.628;2023-06-14T03:51:39;5.00;5.00;4.00
46302;PMS7003;32029;51.358;5.628;2023-06-14T03:54:06;3.67;3.00;3.00
46302;PMS7003;32029;51.358;5.628;2023-06-14T03:56:33;5.00;4.33;3.33
46302;PMS7003;32029;51.358;5.628;2023-06-14T03:59:00;3.00;3.00;2.67
46302;PMS7003;32029;51.358;5.628;2023-06-14T04:01:26;4.00;3.00;2.67
46302;PMS7003;32029;51.358;5.628;2023-06-14T04:03:56;4.00;3.00;2.67
46302;PMS7003;32029;51.358;5.628;2023-06-14T04:06:23;3.67;3.67;2.00
46302;PMS7003;32029;51.358;5.628;2023-06-14T04:08:51;4.00;4.00;3.00
46302;PMS7003;32029;51.358;5.628;2023-06-14T04:11:18;3.33;3.00;3.00
46302;PMS7003;32029;51.358;5.628;2023-06-14T04:13:45;6.67;6.00;5.00
46302;PMS7003;32029;51.358;5.628;2023-06-14T04:16:13;4.00;4.00;3.33
46302;PMS7003;32029;51.358;5.628;2023-06-14T04:18:40;5.00;4.00;4.00
46302;PMS7003;32029;51.358;5.628;2023-06-14T04:21:06;6.00;5.00;4.00
46302;PMS7003;32029;51.358;5.628;2023-06-14T04:23:34;5.00;5.00;4.00
46302;PMS7003;32029;51.358;5.628;2023-06-14T04:26:01;5.00;4.00;4.00
46302;PMS7003;32029;51.358;5.628;2023-06-14T04:28:28;5.00;4.33;4.00
46302;PMS7003;32029;51.358;5.628;2023-06-14T04:30:54;5.00;4.00;4.00
46302;PMS7003;32029;51.358;5.628;2023-06-14T04:33:21;5.67;4.00;4.00
46302;PMS7003;32029;51.358;5.628;2023-06-14T04:35:51;7.00;5.00;4.00
46302;PMS7003;32029;51.358;5.628;2023-06-14T04:38:21;5.00;4.20;4.00
46302;PMS7003;32029;51.358;5.628;2023-06-14T04:40:51;5.00;5.00;4.00
46302;PMS7003;32029;51.358;5.628;2023-06-14T04:43:19;4.50;4.50;4.00
46302;PMS7003;32029;51.358;5.628;2023-06-14T04:45:52;7.00;5.33;5.00
46302;PMS7003;32029;51.358;5.628;2023-06-14T04:48:21;3.33;3.33;2.33
46302;PMS7003;32029;51.358;5.628;2023-06-14T04:50:48;5.00;5.00;4.33
46302;PMS7003;32029;51.358;5.628;2023-06-14T04:53:20;6.40;5.40;4.40
46302;PMS7003;32029;51.358;5.628;2023-06-14T04:55:49;6.00;4.00;4.00
46302;PMS7003;32029;51.358;5.628;2023-06-14T04:58:16;5.33;5.00;4.00
46302;PMS7003;32029;51.358;5.628;2023-06-14T05:00:43;5.00;5.00;4.00
46302;PMS7003;32029;51.358;5.628;2023-06-14T05:03:10;4.00;4.00;3.00
46302;PMS7003;32029;51.358;5.628;2023-06-14T05:05:40;6.67;3.67;3.00
46302;PMS7003;32029;51.358;5.628;2023-06-14T05:08:07;10.00;8.67;6.00
46302;PMS7003;32029;51.358;5.628;2023-06-14T05:10:35;5.33;5.33;4.00
46302;PMS7003;32029;51.358;5.628;2023-06-14T05:13:02;4.33;4.33;3.67
46302;PMS7003;32029;51.358;5.628;2023-06-14T05:15:29;6.00;5.00;4.00
46302;PMS7003;32029;51.358;5.628;2023-06-14T05:17:56;5.33;4.33;3.67
46302;PMS7003;32029;51.358;5.628;2023-06-14T05:20:23;6.33;5.33;5.00
46302;PMS7003;32029;51.358;5.628;2023-06-14T05:22:51;2.67;2.67;2.00
46302;PMS7003;32029;51.358;5.628;2023-06-14T05:25:22;5.00;5.00;4.00
46302;PMS7003;32029;51.358;5.628;2023-06-14T05:27:49;3.00;3.00;3.00
46302;PMS7003;32029;51.358;5.628;2023-06-14T05:30:16;5.00;4.33;3.33
46302;PMS7003;32029;51.358;5.628;2023-06-14T05:32:43;5.67;4.00;3.00
46302;PMS7003;32029;51.358;5.628;2023-06-14T05:35:11;6.33;3.67;3.33
46302;PMS7003;32029;51.358;5.628;2023-06-14T05:37:37;5.00;3.33;3.00
46302;PMS7003;32029;51.358;5.628;2023-06-14T05:40:04;4.33;3.33;3.33
46302;PMS7003;32029;51.358;5.628;2023-06-14T05:42:32;2.33;2.33;2.33
46302;PMS7003;32029;51.358;5.628;2023-06-14T05:44:59;6.33;4.00;3.00
46302;PMS7003;32029;51.358;5.628;2023-06-14T05:47:26;3.33;3.33;3.00
46302;PMS7003;32029;51.358;5.628;2023-06-14T05:49:54;4.33;3.00;2.67
46302;PMS7003;32029;51.358;5.628;2023-06-14T05:52:21;5.33;4.33;4.00
46302;PMS7003;32029;51.358;5.628;2023-06-14T05:54:48;6.67;3.00;2.67
46302;PMS7003;32029;51.358;5.628;2023-06-14T05:57:15;5.67;3.00;2.33
46302;PMS7003;32029;51.358;5.628;2023-06-14T05:59:42;6.00;5.00;4.00
46302;PMS7003;32029;51.358;5.628;2023-06-14T06:02:08;2.00;2.00;2.00
46302;PMS7003;32029;51.358;5.628;2023-06-14T06:04:35;4.00;3.67;3.00
46302;PMS7003;32029;51.358;5.628;2023-06-14T06:07:02;3.00;3.00;3.00
46302;PMS7003;32029;51.358;5.628;2023-06-14T06:09:30;3.00;3.00;3.00
46302;PMS7003;32029;51.358;5.628;2023-06-14T06:11:56;2.00;2.00;2.00
46302;PMS7003;32029;51.358;5.628;2023-06-14T06:14:23;4.00;4.00;4.00
46302;PMS7003;32029;51.358;5.628;2023-06-14T06:16:50;3.00;3.00;2.00
46302;PMS7003;32029;51.358;5.628;2023-06-14T06:19:18;2.33;2.33;2.00
46302;PMS7003;32029;51.358;5.628;2023-06-14T06:21:45;4.00;3.00;2.00
46302;PMS7003;32029;51.358;5.628;2023-06-14T06:24:12;2.00;2.00;1.00
46302;PMS7003;32029;51.358;5.628;2023-06-14T06:26:39;4.33;4.00;3.00
46302;PMS7003;32029;51.358;5.628;2023-06-14T06:29:06;2.33;2.00;2.00
46302;PMS7003;32029;51.358;5.628;2023-06-14T06:31:33;2.00;2.00;2.00
46302;PMS7003;32029;51.358;5.628;2023-06-14T06:33:59;2.00;2.00;2.00
46302;PMS7003;32029;51.358;5.628;2023-06-14T06:36:26;4.33;3.00;2.00
46302;PMS7003;32029;51.358;5.628;2023-06-14T06:38:53;3.00;3.00;3.00
46302;PMS7003;32029;51.358;5.628;2023-06-14T06:41:20;3.33;2.33;1.67
46302;PMS7003;32029;51.358;5.628;2023-06-14T06:43:46;3.00;3.00;3.00
46302;PMS7003;32029;51.358;5.628;2023-06-14T06:46:13;3.00;3.00;2.33
46302;PMS7003;32029;51.358;5.628;2023-06-14T06:48:40;3.00;2.00;2.00
46302;PMS7003;32029;51.358;5.628;2023-06-14T06:51:06;1.33;1.33;1.33
46302;PMS7003;32029;51.358;5.628;2023-06-14T06:53:33;5.00;4.00;3.00
46302;PMS7003;32029;51.358;5.628;2023-06-14T06:56:00;3.00;1.33;1.33
46302;PMS7003;32029;51.358;5.628;2023-06-14T06:58:27;2.67;2.67;2.00
46302;PMS7003;32029;51.358;5.628;2023-06-14T07:00:53;2.00;2.00;1.67
46302;PMS7003;32029;51.358;5.628;2023-06-14T07:03:20;3.00;1.67;1.67
46302;PMS7003;32029;51.358;5.628;2023-06-14T07:05:47;2.67;2.67;2.33
46302;PMS7003;32029;51.358;5.628;2023-06-14T07:08:13;4.00;3.00;2.00
46302;PMS7003;32029;51.358;5.628;2023-06-14T07:10:40;1.67;1.33;1.00
46302;PMS7003;32029;51.358;5.628;2023-06-14T07:13:07;3.00;2.33;2.00
46302;PMS7003;32029;51.358;5.628;2023-06-14T07:15:34;0.67;0.67;0.67
46302;PMS7003;32029;51.358;5.628;2023-06-14T07:18:00;1.00;0.33;0.33
46302;PMS7003;32029;51.358;5.628;2023-06-14T07:20:27;2.67;2.67;2.00
46302;PMS7003;32029;51.358;5.628;2023-06-14T07:22:54;2.67;2.67;1.67
46302;PMS7003;32029;51.358;5.628;2023-06-14T07:25:21;3.67;2.67;1.67
46302;PMS7003;32029;51.358;5.628;2023-06-14T07:27:48;3.33;3.33;3.00
46302;PMS7003;32029;51.358;5.628;2023-06-14T07:30:15;2.00;2.00;1.67
46302;PMS7003;32029;51.358;5.628;2023-06-14T07:32:42;6.33;3.00;2.67
46302;PMS7003;32029;51.358;5.628;2023-06-14T07:35:08;1.00;1.00;0.67
46302;PMS7003;32029;51.358;5.628;2023-06-14T07:37:35;1.67;1.67;1.00
46302;PMS7003;32029;51.358;5.628;2023-06-14T07:40:02;1.67;0.67;0.33
46302;PMS7003;32029;51.358;5.628;2023-06-14T07:42:35;3.67;2.67;2.00
46302;PMS7003;32029;51.358;5.628;2023-06-14T07:45:03;1.33;1.33;1.00
46302;PMS7003;32029;51.358;5.628;2023-06-14T07:47:30;4.00;2.00;2.00
46302;PMS7003;32029;51.358;5.628;2023-06-14T07:49:57;1.00;1.00;1.00
46302;PMS7003;32029;51.358;5.628;2023-06-14T07:52:24;6.67;2.00;2.00
46302;PMS7003;32029;51.358;5.628;2023-06-14T07:54:51;2.67;1.67;1.00
46302;PMS7003;32029;51.358;5.628;2023-06-14T07:57:17;1.33;1.33;1.00
46302;PMS7003;32029;51.358;5.628;2023-06-14T07:59:46;0.00;0.00;0.00
46302;PMS7003;32029;51.358;5.628;2023-06-14T08:02:13;1.00;1.00;1.00
46302;PMS7003;32029;51.358;5.628;2023-06-14T08:04:40;3.00;2.00;2.00
46302;PMS7003;32029;51.358;5.628;2023-06-14T08:07:08;1.00;1.00;1.00
46302;PMS7003;32029;51.358;5.628;2023-06-14T08:09:35;0.33;0.00;0.00
46302;PMS7003;32029;51.358;5.628;2023-06-14T08:12:07;1.00;1.00;1.00
46302;PMS7003;32029;51.358;5.628;2023-06-14T08:14:36;1.00;1.00;1.00
46302;PMS7003;32029;51.358;5.628;2023-06-14T08:17:02;0.33;0.33;0.00
46302;PMS7003;32029;51.358;5.628;2023-06-14T08:19:29;1.33;1.33;1.00
46302;PMS7003;32029;51.358;5.628;2023-06-14T08:21:56;0.00;0.00;0.00
46302;PMS7003;32029;51.358;5.628;2023-06-14T08:24:23;1.00;1.00;0.00
46302;PMS7003;32029;51.358;5.628;2023-06-14T08:26:50;2.00;0.00;0.00
46302;PMS7003;32029;51.358;5.628;2023-06-14T08:29:17;0.00;0.00;0.00
46302;PMS7003;32029;51.358;5.628;2023-06-14T08:31:44;2.00;2.00;1.00
46302;PMS7003;32029;51.358;5.628;2023-06-14T08:34:10;1.00;1.00;0.67
46302;PMS7003;32029;51.358;5.628;2023-06-14T08:36:37;1.00;1.00;1.00
46302;PMS7003;32029;51.358;5.628;2023-06-14T08:39:04;2.33;0.00;0.00
46302;PMS7003;32029;51.358;5.628;2023-06-14T08:41:30;1.00;1.00;0.67
46302;PMS7003;32029;51.358;5.628;2023-06-14T08:43:59;1.67;1.67;1.00
46302;PMS7003;32029;51.358;5.628;2023-06-14T08:46:26;3.00;1.00;1.00
46302;PMS7003;32029;51.358;5.628;2023-06-14T08:48:54;1.00;1.00;0.67
46302;PMS7003;32029;51.358;5.628;2023-06-14T08:51:25;1.00;1.00;0.33
46302;PMS7003;32029;51.358;5.628;2023-06-14T08:53:53;0.00;0.00;0.00
46302;PMS7003;32029;51.358;5.628;2023-06-14T08:56:25;0.00;0.00;0.00
46302;PMS7003;32029;51.358;5.628;2023-06-14T08:58:53;0.00;0.00;0.00
46302;PMS7003;32029;51.358;5.628;2023-06-14T09:01:21;0.00;0.00;0.00
46302;PMS7003;32029;51.358;5.628;2023-06-14T09:03:56;0.00;0.00;0.00
46302;PMS7003;32029;51.358;5.628;2023-06-14T09:06:23;1.00;0.00;0.00
46302;PMS7003;32029;51.358;5.628;2023-06-14T09:08:51;0.33;0.33;0.33
46302;PMS7003;32029;51.358;5.628;2023-06-14T09:11:18;0.00;0.00;0.00
46302;PMS7003;32029;51.358;5.628;2023-06-14T09:13:46;0.00;0.00;0.00
46302;PMS7003;32029;51.358;5.628;2023-06-14T09:16:13;0.00;0.00;0.00
46302;PMS7003;32029;51.358;5.628;2023-06-14T09:18:41;0.33;0.00;0.00
46302;PMS7003;32029;51.358;5.628;2023-06-14T09:21:11;0.00;0.00;0.00
46302;PMS7003;32029;51.358;5.628;2023-06-14T09:23:42;0.00;0.00;0.00
46302;PMS7003;32029;51.358;5.628;2023-06-14T09:26:10;0.00;0.00;0.00
46302;PMS7003;32029;51.358;5.628;2023-06-14T09:28:41;0.00;0.00;0.00
46302;PMS7003;32029;51.358;5.628;2023-06-14T09:31:10;1.00;0.00;0.00
46302;PMS7003;32029;51.358;5.628;2023-06-14T09:33:38;0.00;0.00;0.00
46302;PMS7003;32029;51.358;5.628;2023-06-14T09:36:10;1.00;0.00;0.00
46302;PMS7003;32029;51.358;5.628;2023-06-14T09:38:39;0.00;0.00;0.00
46302;PMS7003;32029;51.358;5.628;2023-06-14T09:41:07;0.00;0.00;0.00
46302;PMS7003;32029;51.358;5.628;2023-06-14T09:43:33;0.00;0.00;0.00
46302;PMS7003;32029;51.358;5.628;2023-06-14T09:46:00;0.00;0.00;0.00
46302;PMS7003;32029;51.358;5.628;2023-06-14T09:48:27;0.00;0.00;0.00
46302;PMS7003;32029;51.358;5.628;2023-06-14T09:50:54;0.00;0.00;0.00
46302;PMS7003;32029;51.358;5.628;2023-06-14T09:53:21;0.00;0.00;0.00
46302;PMS7003;32029;51.358;5.628;2023-06-14T09:55:49;0.00;0.00;0.00
46302;PMS7003;32029;51.358;5.628;2023-06-14T09:58:19;0.00;0.00;0.00
46302;PMS7003;32029;51.358;5.628;2023-06-14T10:00:47;0.00;0.00;0.00
46302;PMS7003;32029;51.358;5.628;2023-06-14T10:03:21;0.00;0.00;0.00
46302;PMS7003;32029;51.358;5.628;2023-06-14T10:05:51;0.00;0.00;0.00
46302;PMS7003;32029;51.358;5.628;2023-06-14T10:08:19;0.00;0.00;0.00
46302;PMS7003;32029;51.358;5.628;2023-06-14T10:10:50;0.00;0.00;0.00
46302;PMS7003;32029;51.358;5.628;2023-06-14T10:13:17;2.00;0.00;0.00
46302;PMS7003;32029;51.358;5.628;2023-06-14T10:16:30;0.00;0.00;0.00
46302;PMS7003;32029;51.358;5.628;2023-06-14T10:18:49;0.00;0.00;0.00
46302;PMS7003;32029;51.358;5.628;2023-06-14T10:21:26;0.00;0.00;0.00
46302;PMS7003;32029;51.358;5.628;2023-06-14T10:24:01;0.00;0.00;0.00
46302;PMS7003;32029;51.358;5.628;2023-06-14T10:26:33;0.00;0.00;0.00
46302;PMS7003;32029;51.358;5.628;2023-06-14T10:29:01;0.00;0.00;0.00
46302;PMS7003;32029;51.358;5.628;2023-06-14T10:31:43;0.00;0.00;0.00
46302;PMS7003;32029;51.358;5.628;2023-06-14T10:34:11;0.00;0.00;0.00
46302;PMS7003;32029;51.358;5.628;2023-06-14T10:36:46;0.00;0.00;0.00
46302;PMS7003;32029;51.358;5.628;2023-06-14T10:39:26;0.00;0.00;0.00
46302;PMS7003;32029;51.358;5.628;2023-06-14T10:41:54;0.00;0.00;0.00
46302;PMS7003;32029;51.358;5.628;2023-06-14T10:46:49;0.00;0.00;0.00
46302;PMS7003;32029;51.358;5.628;2023-06-14T10:49:19;0.00;0.00;0.00
46302;PMS7003;32029;51.358;5.628;2023-06-14T10:51:49;0.00;0.00;0.00
46302;PMS7003;32029;51.358;5.628;2023-06-14T10:54:20;0.00;0.00;0.00
46302;PMS7003;32029;51.358;5.628;2023-06-14T10:56:47;0.00;0.00;0.00
46302;PMS7003;32029;51.358;5.628;2023-06-14T10:59:15;0.00;0.00;0.00
46302;PMS7003;32029;51.358;5.628;2023-06-14T11:04:48;0.00;0.00;0.00
46302;PMS7003;32029;51.358;5.628;2023-06-14T11:10:02;0.00;0.00;0.00
46302;PMS7003;32029;51.358;5.628;2023-06-14T11:12:48;0.00;0.00;0.00
46302;PMS7003;32029;51.358;5.628;2023-06-14T11:15:16;0.00;0.00;0.00
46302;PMS7003;32029;51.358;5.628;2023-06-14T11:17:50;1.33;0.00;0.00
46302;PMS7003;32029;51.358;5.628;2023-06-14T11:20:19;0.00;0.00;0.00
46302;PMS7003;32029;51.358;5.628;2023-06-14T11:22:46;0.00;0.00;0.00
46302;PMS7003;32029;51.358;5.628;2023-06-14T11:25:13;0.00;0.00;0.00
46302;PMS7003;32029;51.358;5.628;2023-06-14T11:27:44;0.67;0.00;0.00
46302;PMS7003;32029;51.358;5.628;2023-06-14T11:30:12;0.00;0.00;0.00
46302;PMS7003;32029;51.358;5.628;2023-06-14T11:32:39;0.00;0.00;0.00
46302;PMS7003;32029;51.358;5.628;2023-06-14T11:35:07;0.00;0.00;0.00
46302;PMS7003;32029;51.358;5.628;2023-06-14T11:37:35;0.00;0.00;0.00
46302;PMS7003;32029;51.358;5.628;2023-06-14T11:40:06;0.00;0.00;0.00
46302;PMS7003;32029;51.358;5.628;2023-06-14T11:42:36;1.67;0.00;0.00
46302;PMS7003;32029;51.358;5.628;2023-06-14T11:45:03;0.00;0.00;0.00
46302;PMS7003;32029;51.358;5.628;2023-06-14T11:47:34;0.00;0.00;0.00
46302;PMS7003;32029;51.358;5.628;2023-06-14T11:50:04;0.00;0.00;0.00
46302;PMS7003;32029;51.358;5.628;2023-06-14T11:52:33;1.00;0.00;0.00
46302;PMS7003;32029;51.358;5.628;2023-06-14T11:55:00;0.00;0.00;0.00
46302;PMS7003;32029;51.358;5.628;2023-06-14T11:57:28;0.00;0.00;0.00
46302;PMS7003;32029;51.358;5.628;2023-06-14T11:59:56;0.00;0.00;0.00
46302;PMS7003;32029;51.358;5.628;2023-06-14T12:02:22;0.00;0.00;0.00
46302;PMS7003;32029;51.358;5.628;2023-06-14T12:04:51;0.00;0.00;0.00
46302;PMS7003;32029;51.358;5.628;2023-06-14T12:07:18;0.00;0.00;0.00
46302;PMS7003;32029;51.358;5.628;2023-06-14T12:12:21;0.33;0.00;0.00
46302;PMS7003;32029;51.358;5.628;2023-06-14T12:14:49;0.00;0.00;0.00
46302;PMS7003;32029;51.358;5.628;2023-06-14T12:17:16;0.33;0.00;0.00
46302;PMS7003;32029;51.358;5.628;2023-06-14T12:19:44;0.00;0.00;0.00
46302;PMS7003;32029;51.358;5.628;2023-06-14T12:22:13;0.00;0.00;0.00
46302;PMS7003;32029;51.358;5.628;2023-06-14T12:24:43;0.00;0.00;0.00
46302;PMS7003;32029;51.358;5.628;2023-06-14T12:27:10;0.00;0.00;0.00
46302;PMS7003;32029;51.358;5.628;2023-06-14T12:29:42;0.00;0.00;0.00
46302;PMS7003;32029;51.358;5.628;2023-06-14T12:32:11;0.00;0.00;0.00
46302;PMS7003;32029;51.358;5.628;2023-06-14T12:34:38;0.00;0.00;0.00
46302;PMS7003;32029;51.358;5.628;2023-06-14T12:37:05;4.00;0.00;0.00
46302;PMS7003;32029;51.358;5.628;2023-06-14T12:39:32;0.00;0.00;0.00
46302;PMS7003;32029;51.358;5.628;2023-06-14T12:41:59;0.00;0.00;0.00
46302;PMS7003;32029;51.358;5.628;2023-06-14T12:44:26;0.00;0.00;0.00
46302;PMS7003;32029;51.358;5.628;2023-06-14T12:46:52;0.00;0.00;0.00
46302;PMS7003;32029;51.358;5.628;2023-06-14T12:49:20;0.00;0.00;0.00
46302;PMS7003;32029;51.358;5.628;2023-06-14T12:51:47;0.00;0.00;0.00
46302;PMS7003;32029;51.358;5.628;2023-06-14T12:54:14;1.33;0.00;0.00
46302;PMS7003;32029;51.358;5.628;2023-06-14T12:56:40;0.00;0.00;0.00
46302;PMS7003;32029;51.358;5.628;2023-06-14T12:59:09;0.00;0.00;0.00
46302;PMS7003;32029;51.358;5.628;2023-06-14T13:01:37;0.00;0.00;0.00
46302;PMS7003;32029;51.358;5.628;2023-06-14T13:04:05;0.33;0.00;0.00
46302;PMS7003;32029;51.358;5.628;2023-06-14T13:06:31;0.00;0.00;0.00
46302;PMS7003;32029;51.358;5.628;2023-06-14T13:09:00;0.00;0.00;0.00
46302;PMS7003;32029;51.358;5.628;2023-06-14T13:11:27;0.00;0.00;0.00
46302;PMS7003;32029;51.358;5.628;2023-06-14T13:13:54;0.00;0.00;0.00
46302;PMS7003;32029;51.358;5.628;2023-06-14T13:16:21;0.67;0.00;0.00
46302;PMS7003;32029;51.358;5.628;2023-06-14T13:18:48;0.00;0.00;0.00
46302;PMS7003;32029;51.358;5.628;2023-06-14T13:21:14;0.00;0.00;0.00
46302;PMS7003;32029;51.358;5.628;2023-06-14T13:23:41;0.00;0.00;0.00
46302;PMS7003;32029;51.358;5.628;2023-06-14T13:26:08;0.00;0.00;0.00
46302;PMS7003;32029;51.358;5.628;2023-06-14T13:28:34;0.00;0.00;0.00
46302;PMS7003;32029;51.358;5.628;2023-06-14T13:31:01;0.00;0.00;0.00
46302;PMS7003;32029;51.358;5.628;2023-06-14T13:33:28;0.00;0.00;0.00
46302;PMS7003;32029;51.358;5.628;2023-06-14T13:35:54;0.00;0.00;0.00
46302;PMS7003;32029;51.358;5.628;2023-06-14T13:38:21;0.00;0.00;0.00
46302;PMS7003;32029;51.358;5.628;2023-06-14T13:40:48;0.00;0.00;0.00
46302;PMS7003;32029;51.358;5.628;2023-06-14T13:43:14;0.00;0.00;0.00
46302;PMS7003;32029;51.358;5.628;2023-06-14T13:45:41;0.00;0.00;0.00
46302;PMS7003;32029;51.358;5.628;2023-06-14T13:48:08;0.00;0.00;0.00
46302;PMS7003;32029;51.358;5.628;2023-06-14T13:50:34;0.00;0.00;0.00
46302;PMS7003;32029;51.358;5.628;2023-06-14T13:53:01;0.00;0.00;0.00
46302;PMS7003;32029;51.358;5.628;2023-06-14T13:55:28;0.00;0.00;0.00
46302;PMS7003;32029;51.358;5.628;2023-06-14T13:57:55;0.00;0.00;0.00
46302;PMS7003;32029;51.358;5.628;2023-06-14T14:00:22;0.00;0.00;0.00
46302;PMS7003;32029;51.358;5.628;2023-06-14T14:02:49;0.00;0.00;0.00
46302;PMS7003;32029;51.358;5.628;2023-06-14T14:05:16;0.00;0.00;0.00
46302;PMS7003;32029;51.358;5.628;2023-06-14T14:07:43;0.00;0.00;0.00
46302;PMS7003;32029;51.358;5.628;2023-06-14T14:10:10;0.00;0.00;0.00
46302;PMS7003;32029;51.358;5.628;2023-06-14T14:12:39;0.00;0.00;0.00
46302;PMS7003;32029;51.358;5.628;2023-06-14T14:15:06;0.00;0.00;0.00
46302;PMS7003;32029;51.358;5.628;2023-06-14T14:17:38;0.00;0.00;0.00
46302;PMS7003;32029;51.358;5.628;2023-06-14T14:20:05;0.00;0.00;0.00
46302;PMS7003;32029;51.358;5.628;2023-06-14T14:22:33;0.00;0.00;0.00
46302;PMS7003;32029;51.358;5.628;2023-06-14T14:24:59;0.00;0.00;0.00
46302;PMS7003;32029;51.358;5.628;2023-06-14T14:27:26;0.00;0.00;0.00
46302;PMS7003;32029;51.358;5.628;2023-06-14T14:29:53;0.00;0.00;0.00
46302;PMS7003;32029;51.358;5.628;2023-06-14T14:32:19;0.00;0.00;0.00
46302;PMS7003;32029;51.358;5.628;2023-06-14T14:34:46;0.00;0.00;0.00
46302;PMS7003;32029;51.358;5.628;2023-06-14T14:37:13;0.00;0.00;0.00
46302;PMS7003;32029;51.358;5.628;2023-06-14T14:39:41;0.00;0.00;0.00
46302;PMS7003;32029;51.358;5.628;2023-06-14T14:42:08;0.00;0.00;0.00
46302;PMS7003;32029;51.358;5.628;2023-06-14T14:44:34;0.00;0.00;0.00